Time;durP1;ratioP1;P1;durP2;ratioP2;P2;SDS_P1;SDS_P2;PMS_P1;PMS_P2;Temp;Humidity;BMP_temperature;BMP_pressure;BME280_temperature;BME280_humidity;BME280_pressure;Samples;Min_cycle;Max_cycle;Signal;HPM_P1;HPM_P2
2022/07/02 00:00:56;;;;;;;5.47;4.40;;;14.20;99.90;;;;;;5064239;28;20454;-84
2022/07/02 00:03:28;;;;;;;4.10;3.80;;;14.20;99.90;;;;;;5064656;28;20455;-83
2022/07/02 00:05:57;;;;;;;4.27;3.43;;;14.20;99.90;;;;;;5064653;28;20484;-83
2022/07/02 00:08:25;;;;;;;4.17;3.33;;;14.20;99.90;;;;;;5064370;28;20479;-83
2022/07/02 00:10:52;;;;;;;3.70;3.40;;;14.20;99.90;;;;;;5063332;28;20444;-84
2022/07/02 00:13:19;;;;;;;4.00;3.70;;;14.20;99.90;;;;;;5064393;28;20945;-83
2022/07/02 00:15:46;;;;;;;4.13;3.70;;;14.10;99.90;;;;;;5064174;28;20453;-83
2022/07/02 00:18:14;;;;;;;3.90;3.23;;;14.10;99.90;;;;;;5064482;28;20478;-83
2022/07/02 00:20:43;;;;;;;3.57;3.37;;;14.00;99.90;;;;;;5065162;28;20458;-83
2022/07/02 00:23:10;;;;;;;4.03;3.73;;;14.10;99.90;;;;;;5064945;28;20460;-83
2022/07/02 00:25:40;;;;;;;4.20;3.80;;;14.00;99.90;;;;;;5079095;28;20991;-83
2022/07/02 00:28:07;;;;;;;4.40;4.10;;;14.00;99.90;;;;;;5084210;28;20492;-83
2022/07/02 00:30:34;;;;;;;3.93;3.70;;;13.90;99.90;;;;;;5070451;28;20818;-83
2022/07/02 00:33:02;;;;;;;4.10;3.37;;;13.90;99.90;;;;;;5064000;28;20452;-84
2022/07/02 00:35:30;;;;;;;4.10;3.77;;;13.90;99.90;;;;;;5072992;28;20450;-83
2022/07/02 00:37:59;;;;;;;4.73;4.33;;;13.90;99.90;;;;;;5081369;28;20477;-83
2022/07/02 00:40:26;;;;;;;4.47;4.07;;;13.90;99.90;;;;;;5069614;28;20453;-83
2022/07/02 00:42:53;;;;;;;4.80;4.40;;;13.80;99.90;;;;;;5061703;28;20456;-83
2022/07/02 00:45:20;;;;;;;4.50;4.20;;;13.90;99.90;;;;;;5061673;28;20544;-83
2022/07/02 00:47:48;;;;;;;4.03;3.73;;;13.80;99.90;;;;;;5061561;28;20468;-83
2022/07/02 00:50:15;;;;;;;5.37;4.87;;;13.90;99.90;;;;;;5069711;28;20443;-83
2022/07/02 00:52:41;;;;;;;4.87;4.47;;;13.80;99.90;;;;;;5081119;28;20447;-83
2022/07/02 00:55:10;;;;;;;5.00;4.60;;;13.60;99.90;;;;;;5080984;28;20455;-83
2022/07/02 00:57:37;;;;;;;4.27;3.93;;;13.60;99.90;;;;;;5080925;28;20467;-83
2022/07/02 01:00:04;;;;;;;4.47;4.07;;;13.70;99.90;;;;;;5075062;28;20459;-83
2022/07/02 01:02:32;;;;;;;5.70;5.20;;;13.80;99.90;;;;;;5060864;28;20448;-83
2022/07/02 01:05:00;;;;;;;3.30;3.10;;;13.80;99.90;;;;;;5063398;28;20519;-83
2022/07/02 01:07:29;;;;;;;4.10;3.87;;;13.90;99.90;;;;;;5064825;28;20559;-83
2022/07/02 01:10:17;;;;;;;4.20;3.80;;;13.90;99.90;;;;;;5069536;28;20449;-83
2022/07/02 01:12:46;;;;;;;4.40;4.00;;;14.00;99.90;;;;;;5071537;28;20452;-83
2022/07/02 01:15:13;;;;;;;3.93;3.63;;;14.00;99.90;;;;;;5076611;28;20453;-83
2022/07/02 01:17:40;;;;;;;3.60;3.30;;;14.10;99.90;;;;;;5084709;28;20471;-83
2022/07/02 01:20:08;;;;;;;4.37;4.07;;;14.10;99.90;;;;;;5060375;28;20448;-83
2022/07/02 01:22:37;;;;;;;4.23;3.93;;;14.20;99.90;;;;;;5061679;28;20456;-83
2022/07/02 01:25:05;;;;;;;3.77;3.47;;;14.20;99.90;;;;;;5080516;28;20451;-83
2022/07/02 01:27:32;;;;;;;4.13;3.83;;;14.20;99.90;;;;;;5087996;28;20493;-83
2022/07/02 01:29:58;;;;;;;3.43;3.20;;;14.20;99.90;;;;;;5089268;28;20451;-83
2022/07/02 01:32:25;;;;;;;4.27;3.90;;;14.20;99.90;;;;;;5089356;28;20443;-83
2022/07/02 01:34:54;;;;;;;3.33;3.07;;;14.20;99.90;;;;;;5088043;28;20457;-83
2022/07/02 01:37:23;;;;;;;3.63;3.30;;;14.10;99.90;;;;;;5088834;28;20467;-83
2022/07/02 01:39:51;;;;;;;4.23;3.63;;;14.20;99.90;;;;;;5063679;28;20448;-83
2022/07/02 01:42:18;;;;;;;5.87;4.00;;;14.10;99.90;;;;;;5060118;28;20456;-83
2022/07/02 01:44:46;;;;;;;3.10;2.90;;;14.00;99.90;;;;;;5059615;28;21002;-83
2022/07/02 01:47:14;;;;;;;3.40;3.03;;;14.00;99.90;;;;;;5058613;28;20488;-83
2022/07/02 01:49:41;;;;;;;4.40;4.00;;;13.90;99.90;;;;;;5060032;28;20464;-84
2022/07/02 01:52:08;;;;;;;3.80;3.30;;;13.90;99.90;;;;;;5059391;28;20444;-83
2022/07/02 01:54:36;;;;;;;3.47;3.17;;;13.90;99.90;;;;;;5071023;28;20448;-83
2022/07/02 01:57:05;;;;;;;3.40;3.10;;;13.80;99.90;;;;;;5061245;28;20476;-83
2022/07/02 01:59:32;;;;;;;3.53;3.10;;;13.70;99.90;;;;;;5060054;28;20525;-83
2022/07/02 02:01:59;;;;;;;4.30;3.33;;;13.70;99.90;;;;;;5059638;28;20462;-83
2022/07/02 02:04:26;;;;;;;3.30;3.10;;;13.60;99.90;;;;;;5058744;28;20448;-83
2022/07/02 02:06:52;;;;;;;3.10;2.80;;;13.60;99.90;;;;;;5070220;28;20486;-83
2022/07/02 02:09:19;;;;;;;4.30;3.27;;;13.60;99.90;;;;;;5079605;28;20864;-83
2022/07/02 02:11:46;;;;;;;3.30;3.10;;;13.60;99.90;;;;;;5069237;28;20463;-83
2022/07/02 02:14:14;;;;;;;6.23;3.40;;;13.60;99.90;;;;;;5059234;28;20448;-83
2022/07/02 02:16:41;;;;;;;3.43;3.20;;;13.60;99.90;;;;;;5067620;28;20824;-83
2022/07/02 02:19:08;;;;;;;3.57;3.27;;;13.50;99.90;;;;;;5078958;28;20976;-83
2022/07/02 02:21:35;;;;;;;5.33;4.83;;;13.50;99.90;;;;;;5071136;28;20455;-83
2022/07/02 02:24:01;;;;;;;4.83;3.53;;;13.50;99.90;;;;;;5059333;28;20452;-83
2022/07/02 02:26:28;;;;;;;4.03;3.47;;;13.40;99.90;;;;;;5064885;28;20478;-83
2022/07/02 02:28:55;;;;;;;4.60;4.23;;;13.50;99.90;;;;;;5078709;28;20470;-83
2022/07/02 02:31:24;;;;;;;3.40;3.13;;;13.40;99.90;;;;;;5074657;28;20463;-83
2022/07/02 02:33:51;;;;;;;4.00;3.60;;;13.40;99.90;;;;;;5058465;28;20459;-83
2022/07/02 02:36:18;;;;;;;4.03;3.53;;;13.40;99.90;;;;;;5061538;28;20539;-83
2022/07/02 02:38:46;;;;;;;4.27;3.97;;;13.40;99.90;;;;;;5078619;28;20481;-83
2022/07/02 02:41:13;;;;;;;5.40;4.47;;;13.30;99.90;;;;;;5077722;28;20470;-83
2022/07/02 02:43:40;;;;;;;4.90;4.40;;;13.30;99.90;;;;;;5078376;28;20451;-83
2022/07/02 02:46:07;;;;;;;4.73;4.43;;;13.40;99.90;;;;;;5076508;28;20486;-83
2022/07/02 02:48:36;;;;;;;4.67;4.30;;;13.30;99.90;;;;;;5078076;28;21027;-83
2022/07/02 02:51:04;;;;;;;5.50;4.30;;;13.30;99.90;;;;;;5077872;28;20454;-83
2022/07/02 02:53:31;;;;;;;4.10;3.80;;;13.30;99.90;;;;;;5078848;28;20849;-83
2022/07/02 02:55:59;;;;;;;4.00;3.60;;;13.30;99.90;;;;;;5070426;28;20540;-83
2022/07/02 02:58:25;;;;;;;3.73;3.53;;;13.30;99.90;;;;;;5057620;28;20514;-83
2022/07/02 03:00:52;;;;;;;4.60;4.30;;;13.30;99.90;;;;;;5057353;28;20452;-83
2022/07/02 03:03:19;;;;;;;4.27;3.97;;;13.20;99.90;;;;;;5057488;28;20455;-83
2022/07/02 03:05:47;;;;;;;6.33;4.43;;;13.20;99.90;;;;;;5062579;28;20447;-83
2022/07/02 03:08:14;;;;;;;4.47;4.07;;;13.10;99.90;;;;;;5077436;28;20478;-83
2022/07/02 03:10:41;;;;;;;4.43;4.03;;;13.10;99.90;;;;;;5073950;28;20456;-83
2022/07/02 03:13:08;;;;;;;4.70;4.40;;;13.10;99.90;;;;;;5061644;28;20443;-83
2022/07/02 03:15:34;;;;;;;4.30;3.90;;;13.10;99.90;;;;;;5076884;28;20450;-83
2022/07/02 03:18:01;;;;;;;5.33;4.93;;;13.10;99.90;;;;;;5078367;28;20478;-83
2022/07/02 03:20:28;;;;;;;4.83;4.43;;;13.10;99.90;;;;;;5077626;28;20447;-83
2022/07/02 03:22:56;;;;;;;4.73;4.33;;;13.10;99.90;;;;;;5077176;28;20454;-83
2022/07/02 03:25:23;;;;;;;5.77;5.27;;;13.10;99.90;;;;;;5077862;28;20454;-83
2022/07/02 03:27:50;;;;;;;5.73;5.27;;;13.10;99.90;;;;;;5058088;28;20490;-83
2022/07/02 03:30:16;;;;;;;4.80;4.47;;;13.10;99.90;;;;;;5057933;28;20455;-83
2022/07/02 03:32:43;;;;;;;4.20;3.70;;;13.10;99.90;;;;;;5076430;28;20454;-83
2022/07/02 03:35:10;;;;;;;3.80;3.60;;;13.10;99.90;;;;;;5077800;28;20466;-83
2022/07/02 03:37:37;;;;;;;3.90;3.60;;;13.00;99.90;;;;;;5061501;28;20467;-83
2022/07/02 03:40:06;;;;;;;4.13;3.83;;;13.00;99.90;;;;;;5057131;28;20455;-83
2022/07/02 03:42:33;;;;;;;4.10;3.80;;;13.00;99.90;;;;;;5058029;28;20456;-83
2022/07/02 03:44:59;;;;;;;4.23;3.93;;;13.00;99.90;;;;;;5057501;28;20462;-83
2022/07/02 03:47:26;;;;;;;3.77;3.47;;;13.00;99.90;;;;;;5057220;28;20496;-83
2022/07/02 03:49:53;;;;;;;6.00;5.50;;;13.00;99.90;;;;;;5057580;28;20447;-83
2022/07/02 03:52:19;;;;;;;5.73;5.20;;;13.00;99.90;;;;;;5058480;28;20456;-83
2022/07/02 03:54:46;;;;;;;6.63;6.13;;;13.00;99.90;;;;;;5057223;28;20444;-83
2022/07/02 03:57:14;;;;;;;9.13;8.30;;;13.00;99.90;;;;;;5057557;28;20467;-83
2022/07/02 03:59:41;;;;;;;8.80;8.07;;;13.00;99.90;;;;;;5057881;28;20462;-83
2022/07/02 04:02:08;;;;;;;13.50;8.53;;;13.00;99.90;;;;;;5067163;28;20804;-83
2022/07/02 04:04:34;;;;;;;9.33;8.23;;;13.00;99.90;;;;;;5077609;28;20454;-83
2022/07/02 04:07:01;;;;;;;8.90;8.10;;;13.10;99.90;;;;;;5077007;28;20992;-83
2022/07/02 04:09:28;;;;;;;8.90;8.10;;;13.10;99.90;;;;;;5077759;28;20451;-83
2022/07/02 04:11:54;;;;;;;9.03;8.13;;;13.10;99.90;;;;;;5074340;28;20455;-83
2022/07/02 04:14:22;;;;;;;8.57;7.23;;;13.20;99.90;;;;;;5060484;28;20448;-82
2022/07/02 04:16:49;;;;;;;8.10;7.30;;;13.20;99.90;;;;;;5066146;28;20482;-83
2022/07/02 04:19:16;;;;;;;7.47;6.30;;;13.30;99.90;;;;;;5080896;28;20446;-83
2022/07/02 04:21:43;;;;;;;7.43;6.70;;;13.30;99.90;;;;;;5076433;28;20478;-83
2022/07/02 04:24:09;;;;;;;8.40;7.60;;;13.30;99.90;;;;;;5060792;28;20470;-83
2022/07/02 04:26:36;;;;;;;10.50;9.50;;;13.30;99.90;;;;;;5061228;28;20488;-83
2022/07/02 04:29:03;;;;;;;9.97;9.07;;;13.30;99.90;;;;;;5060939;28;20542;-83
2022/07/02 04:31:31;;;;;;;10.60;9.60;;;13.30;99.90;;;;;;5061999;28;20455;-83
2022/07/02 04:33:58;;;;;;;10.90;9.80;;;13.40;99.90;;;;;;5080701;28;20443;-83
2022/07/02 04:36:25;;;;;;;12.37;10.43;;;13.40;99.90;;;;;;5079679;28;20447;-83
2022/07/02 04:38:52;;;;;;;12.17;11.00;;;13.40;99.90;;;;;;5079721;28;20477;-83
2022/07/02 04:41:18;;;;;;;14.03;11.33;;;13.50;99.90;;;;;;5080353;28;20446;-83
2022/07/02 04:43:45;;;;;;;12.93;11.63;;;13.60;99.90;;;;;;5079473;28;20459;-83
2022/07/02 04:46:12;;;;;;;12.13;10.87;;;13.60;99.90;;;;;;5080144;28;20447;-83
2022/07/02 04:48:40;;;;;;;11.67;10.47;;;13.60;99.90;;;;;;5063083;28;20543;-83
2022/07/02 04:51:07;;;;;;;12.77;11.57;;;13.60;99.90;;;;;;5059886;28;20839;-83
2022/07/02 04:53:33;;;;;;;13.20;11.43;;;13.70;99.90;;;;;;5060944;28;20444;-83
2022/07/02 04:56:00;;;;;;;13.10;11.80;;;13.70;99.90;;;;;;5061006;28;20455;-83
2022/07/02 04:58:27;;;;;;;11.27;10.13;;;13.70;99.90;;;;;;5061553;28;20476;-82
2022/07/02 05:00:54;;;;;;;12.23;11.03;;;13.80;99.90;;;;;;5060670;28;20456;-82
2022/07/02 05:03:20;;;;;;;10.80;9.70;;;13.80;99.90;;;;;;5073433;28;20452;-82
2022/07/02 05:05:48;;;;;;;13.03;11.70;;;13.80;99.90;;;;;;5080881;28;20459;-82
2022/07/02 05:08:15;;;;;;;11.93;10.77;;;13.80;99.90;;;;;;5079920;28;20486;-82
2022/07/02 05:10:42;;;;;;;12.30;11.00;;;13.80;99.90;;;;;;5080327;28;20461;-83
2022/07/02 05:13:09;;;;;;;10.70;9.70;;;13.90;99.90;;;;;;5071425;28;20444;-82
2022/07/02 05:15:36;;;;;;;10.57;9.57;;;13.90;99.90;;;;;;5060736;28;20823;-82
2022/07/02 05:18:03;;;;;;;11.77;10.53;;;13.90;99.90;;;;;;5061390;28;20479;-82
2022/07/02 05:20:30;;;;;;;11.43;10.33;;;14.00;99.90;;;;;;5059804;28;20483;-82
2022/07/02 05:22:58;;;;;;;11.20;10.17;;;14.00;99.90;;;;;;5060560;28;20452;-82
2022/07/02 05:25:25;;;;;;;11.50;9.77;;;14.00;99.90;;;;;;5060716;28;20451;-82
2022/07/02 05:27:51;;;;;;;11.73;10.20;;;14.10;99.90;;;;;;5066570;28;20483;-82
2022/07/02 05:30:18;;;;;;;10.30;9.40;;;14.10;99.90;;;;;;5080234;28;20810;-82
2022/07/02 05:32:45;;;;;;;9.77;8.73;;;14.20;99.90;;;;;;5066281;28;20452;-83
2022/07/02 05:35:12;;;;;;;9.30;8.50;;;14.30;99.90;;;;;;5060455;28;20984;-82
2022/07/02 05:37:38;;;;;;;8.67;7.97;;;14.40;99.90;;;;;;5060181;28;20563;-82
2022/07/02 05:40:08;;;;;;;9.00;8.20;;;14.40;99.90;;;;;;5060067;28;20455;-82
2022/07/02 05:42:34;;;;;;;8.40;7.70;;;14.50;99.90;;;;;;5059861;28;20569;-82
2022/07/02 05:45:01;;;;;;;7.03;6.53;;;14.50;99.90;;;;;;5060054;28;20452;-83
2022/07/02 05:47:28;;;;;;;7.90;7.20;;;14.60;99.90;;;;;;5060290;28;20488;-82
2022/07/02 05:49:56;;;;;;;7.97;7.33;;;14.70;99.90;;;;;;5060423;28;20657;-82
2022/07/02 05:52:23;;;;;;;9.83;9.00;;;14.80;99.90;;;;;;5060160;28;20463;-82
2022/07/02 05:54:49;;;;;;;6.53;5.93;;;14.80;99.90;;;;;;5059972;28;20452;-82
2022/07/02 05:57:18;;;;;;;7.33;6.70;;;14.90;99.90;;;;;;5068809;28;20474;-83
2022/07/02 05:59:44;;;;;;;6.47;5.87;;;15.00;99.90;;;;;;5079547;28;20824;-83
2022/07/02 06:02:11;;;;;;;7.07;6.20;;;15.00;99.90;;;;;;5070826;28;20454;-82
2022/07/02 06:04:38;;;;;;;6.80;6.23;;;15.10;99.90;;;;;;5059075;28;20444;-82
2022/07/02 06:09:49;;;;;;;7.10;6.40;;;15.20;99.90;;;;;;5079625;28;20428;-82
2022/07/02 06:12:17;;;;;;;6.73;6.07;;;15.30;99.90;;;;;;5078350;28;20454;-82
2022/07/02 06:14:44;;;;;;;5.40;4.90;;;15.30;99.90;;;;;;5079034;28;20462;-82
2022/07/02 06:17:11;;;;;;;6.50;5.10;;;15.40;99.90;;;;;;5079287;28;20459;-82
2022/07/02 06:19:38;;;;;;;5.97;5.47;;;15.50;99.90;;;;;;5079753;28;20455;-82
2022/07/02 06:22:06;;;;;;;5.87;5.37;;;15.60;99.90;;;;;;5074130;28;20453;-83
2022/07/02 06:24:32;;;;;;;5.67;5.20;;;15.60;99.90;;;;;;5060138;28;20452;-83
2022/07/02 06:26:59;;;;;;;6.47;4.73;;;15.70;99.90;;;;;;5059804;28;20471;-83
2022/07/02 06:29:27;;;;;;;4.10;3.80;;;15.70;99.90;;;;;;5059926;28;20448;-82
2022/07/02 06:31:54;;;;;;;10.63;4.20;;;15.80;99.90;;;;;;5061883;28;20460;-82
2022/07/02 06:34:21;;;;;;;4.40;4.00;;;15.80;99.90;;;;;;5078445;28;20458;-82
2022/07/02 06:36:48;;;;;;;3.90;3.60;;;15.90;99.90;;;;;;5073179;28;20449;-82
2022/07/02 06:39:15;;;;;;;3.73;3.50;;;16.00;99.90;;;;;;5073495;28;21100;-82
2022/07/02 06:44:27;;;;;;;4.30;3.77;;;16.20;99.90;;;;;;5053680;28;20482;-83
2022/07/02 06:46:54;;;;;;;3.60;3.37;;;16.30;99.90;;;;;;5053537;28;20448;-82
2022/07/02 06:49:20;;;;;;;2.70;2.60;;;16.30;99.90;;;;;;5053465;28;20445;-82
2022/07/02 06:51:47;;;;;;;2.27;2.17;;;16.40;99.90;;;;;;5067802;28;20459;-82
2022/07/02 06:54:14;;;;;;;2.50;2.37;;;16.40;99.90;;;;;;5053915;28;20906;-82
2022/07/02 06:56:41;;;;;;;2.90;2.10;;;16.60;99.90;;;;;;5053687;28;20449;-82
2022/07/02 06:59:08;;;;;;;2.97;2.67;;;16.70;99.90;;;;;;5052761;28;20452;-83
2022/07/02 07:01:36;;;;;;;2.93;2.73;;;16.70;99.90;;;;;;5057943;28;20452;-83
2022/07/02 07:04:03;;;;;;;2.40;2.20;;;16.70;99.90;;;;;;5072843;28;20459;-83
2022/07/02 07:06:30;;;;;;;3.83;2.13;;;16.80;99.90;;;;;;5071875;28;20530;-83
2022/07/02 07:08:57;;;;;;;2.80;2.07;;;16.90;99.90;;;;;;5072666;28;20533;-82
2022/07/02 07:11:23;;;;;;;2.53;2.33;;;16.90;99.90;;;;;;5072079;28;20827;-82
2022/07/02 07:13:50;;;;;;;2.57;1.77;;;17.00;99.90;;;;;;5073446;28;20453;-82
2022/07/02 07:16:18;;;;;;;2.30;2.10;;;17.10;99.90;;;;;;5058948;28;20966;-83
2022/07/02 07:18:46;;;;;;;2.33;2.13;;;17.10;99.90;;;;;;5053968;28;20470;-82
2022/07/02 07:21:13;;;;;;;1.90;1.80;;;17.10;99.90;;;;;;5057482;28;20449;-83
2022/07/02 07:23:40;;;;;;;2.37;2.27;;;17.20;99.90;;;;;;5053757;28;20445;-83
2022/07/02 07:26:06;;;;;;;2.53;2.33;;;17.30;99.90;;;;;;5054011;28;20540;-82
2022/07/02 07:28:33;;;;;;;1.80;1.70;;;17.30;99.90;;;;;;5053571;28;20490;-83
2022/07/02 07:31:00;;;;;;;2.00;1.90;;;17.40;99.90;;;;;;5067196;28;20859;-82
2022/07/02 07:33:26;;;;;;;1.47;1.37;;;17.50;99.90;;;;;;5072447;28;20456;-82
2022/07/02 07:35:54;;;;;;;2.23;2.10;;;17.50;99.90;;;;;;5073675;28;20449;-83
2022/07/02 07:38:21;;;;;;;1.87;1.77;;;17.60;99.90;;;;;;5065078;28;20461;-82
2022/07/02 07:40:48;;;;;;;1.73;1.63;;;17.60;99.90;;;;;;5052321;28;20444;-83
2022/07/02 07:43:15;;;;;;;2.43;2.27;;;17.80;99.90;;;;;;5058615;28;20456;-83
2022/07/02 07:45:41;;;;;;;1.90;1.60;;;17.80;99.90;;;;;;5075968;28;20445;-83
2022/07/02 07:48:08;;;;;;;2.30;1.90;;;17.90;99.90;;;;;;5057280;28;20969;-83
2022/07/02 07:50:35;;;;;;;1.93;1.57;;;18.00;99.90;;;;;;5055538;28;20458;-83
2022/07/02 07:53:03;;;;;;;1.10;1.10;;;18.10;99.90;;;;;;5074154;28;20453;-84
2022/07/02 08:41:22;;;;;;;1.07;1.07;;;19.60;99.90;;;;;;5600432;22;21006;-84
2022/07/02 08:47:12;;;;;;;1.20;1.03;;;19.70;99.90;;;;;;5034776;28;20413;-83
2022/07/02 08:49:40;;;;;;;2.00;1.30;;;19.90;99.90;;;;;;5023498;28;20488;-84
2022/07/02 08:52:12;;;;;;;2.13;1.13;;;20.00;99.90;;;;;;5041322;28;20499;-83
2022/07/02 08:54:39;;;;;;;1.13;1.13;;;20.10;99.90;;;;;;5040957;28;20457;-84
2022/07/02 08:57:09;;;;;;;2.30;1.03;;;20.20;99.90;;;;;;5041558;28;20477;-84
2022/07/02 08:59:36;;;;;;;1.20;1.20;;;20.40;99.90;;;;;;5046246;28;20445;-84
2022/07/02 09:02:03;;;;;;;1.30;1.13;;;20.50;99.90;;;;;;5043827;28;20453;-83
2022/07/02 09:04:33;;;;;;;1.73;1.33;;;20.50;99.90;;;;;;5042631;28;20460;-83
2022/07/02 09:07:05;;;;;;;1.20;0.87;;;20.70;99.90;;;;;;5042376;28;20509;-84
2022/07/02 09:09:32;;;;;;;1.47;1.37;;;20.80;99.90;;;;;;5038170;28;20994;-84
2022/07/02 09:12:00;;;;;;;1.50;1.40;;;20.90;99.90;;;;;;5037748;28;20459;-83
2022/07/02 09:14:28;;;;;;;0.73;0.73;;;21.00;99.90;;;;;;5038517;28;21022;-83
2022/07/02 09:16:56;;;;;;;2.93;1.10;;;21.20;99.90;;;;;;5037865;28;20454;-83
2022/07/02 09:19:22;;;;;;;1.10;1.10;;;21.30;98.80;;;;;;5037963;28;20493;-83
2022/07/02 09:21:51;;;;;;;1.10;1.10;;;21.40;99.40;;;;;;5037790;28;20540;-83
2022/07/02 09:24:30;;;;;;;2.77;2.57;;;21.50;98.50;;;;;;5038263;28;20815;-83
2022/07/02 09:27:02;;;;;;;0.90;0.90;;;21.60;99.00;;;;;;5037455;28;20470;-83
2022/07/02 09:32:49;;;;;;;1.23;1.10;;;21.80;98.00;;;;;;5037293;28;20446;-83
2022/07/02 09:35:21;;;;;;;1.53;1.07;;;21.90;96.90;;;;;;5037732;28;20477;-83
2022/07/02 09:37:51;;;;;;;1.13;1.13;;;22.00;94.30;;;;;;5037698;28;20478;-83
2022/07/02 09:40:23;;;;;;;1.37;1.20;;;22.00;95.20;;;;;;5039056;28;20462;-83
2022/07/02 09:42:51;;;;;;;1.30;1.20;;;22.10;95.50;;;;;;5055483;28;20452;-84
2022/07/02 09:45:18;;;;;;;1.20;1.20;;;22.20;95.90;;;;;;5055179;28;20436;-83
2022/07/02 09:47:49;;;;;;;1.00;0.90;;;22.40;95.80;;;;;;5040978;28;20475;-83
2022/07/02 09:50:18;;;;;;;1.20;0.97;;;22.40;93.10;;;;;;5036888;28;20470;-83
2022/07/02 09:52:51;;;;;;;0.60;0.60;;;22.60;94.00;;;;;;5036791;28;20475;-83
2022/07/02 09:55:23;;;;;;;1.00;1.00;;;22.60;93.30;;;;;;5037986;28;20821;-83
2022/07/02 09:58:00;;;;;;;3.27;2.40;;;22.70;92.60;;;;;;5036924;28;20476;-83
2022/07/02 10:00:53;;;;;;;0.83;0.83;;;22.80;91.80;;;;;;5037249;28;20549;-82
2022/07/02 10:06:04;;;;;;;1.90;1.80;;;23.10;93.60;;;;;;5050518;28;20450;-82
2022/07/02 10:08:35;;;;;;;0.70;0.70;;;23.30;93.80;;;;;;5049412;28;20507;-82
2022/07/02 10:11:07;;;;;;;0.93;0.80;;;23.40;92.20;;;;;;5047787;28;20454;-83
2022/07/02 10:16:22;;;;;;;0.97;0.80;;;23.70;91.50;;;;;;5037221;28;20453;-84
2022/07/02 10:18:52;;;;;;;1.20;1.13;;;23.90;91.20;;;;;;5040587;28;20481;-85
2022/07/02 10:21:19;;;;;;;1.13;1.03;;;23.90;90.40;;;;;;5051971;28;20453;-84
2022/07/02 10:23:56;;;;;;;1.00;1.00;;;24.20;90.90;;;;;;5052270;28;20449;-84
2022/07/02 10:26:26;;;;;;;1.40;1.30;;;24.10;90.50;;;;;;5051705;28;20449;-83
2022/07/02 10:28:54;;;;;;;1.27;0.97;;;24.30;91.20;;;;;;5046176;28;20491;-83
2022/07/02 10:31:21;;;;;;;1.20;0.80;;;24.50;90.10;;;;;;5048741;28;20537;-82
2022/07/02 10:33:55;;;;;;;0.87;0.87;;;24.70;86.20;;;;;;5047246;28;20454;-81
2022/07/02 10:36:23;;;;;;;1.00;1.00;;;24.80;88.10;;;;;;5049754;28;20449;-81
2022/07/02 10:38:58;;;;;;;1.30;1.20;;;24.80;85.30;;;;;;5049456;28;20494;-82
2022/07/02 10:41:29;;;;;;;1.10;1.10;;;25.00;88.50;;;;;;5049492;28;20513;-81
2022/07/02 10:43:57;;;;;;;1.00;1.00;;;25.20;88.90;;;;;;5049365;28;20441;-81
2022/07/02 10:46:25;;;;;;;1.33;1.10;;;25.40;87.90;;;;;;5049462;28;20456;-82
2022/07/02 10:48:55;;;;;;;1.10;1.10;;;25.60;85.30;;;;;;5049717;28;20468;-81
2022/07/02 10:51:24;;;;;;;0.73;0.73;;;25.70;86.00;;;;;;5049794;28;20454;-81
2022/07/02 10:53:52;;;;;;;1.33;1.00;;;25.90;86.80;;;;;;5049991;28;20458;-82
2022/07/02 10:56:21;;;;;;;0.80;0.80;;;26.10;85.20;;;;;;5049452;28;20453;-81
2022/07/02 10:58:48;;;;;;;0.90;0.90;;;26.30;80.70;;;;;;5049607;28;20496;-81
2022/07/02 11:01:16;;;;;;;0.90;0.90;;;26.60;82.30;;;;;;5049560;28;20459;-81
2022/07/02 11:03:56;;;;;;;2.60;0.87;;;26.80;82.50;;;;;;5048326;28;20455;-82
2022/07/02 11:06:24;;;;;;;0.93;0.93;;;27.10;80.30;;;;;;5049817;28;20514;-82
2022/07/02 11:08:58;;;;;;;0.77;0.77;;;27.30;78.50;;;;;;5050309;28;20472;-81
2022/07/02 11:11:59;;;;;;;0.73;0.73;;;27.50;67.00;;;;;;5050020;28;20443;-82
2022/07/02 11:14:28;;;;;;;1.20;1.10;;;27.70;74.50;;;;;;4989737;28;20479;-81
2022/07/02 11:16:56;;;;;;;0.73;0.73;;;28.00;76.30;;;;;;4988497;28;20470;-82
2022/07/02 11:19:26;;;;;;;0.60;0.60;;;28.40;73.30;;;;;;5017166;28;20504;-82
2022/07/02 11:21:55;;;;;;;0.90;0.90;;;28.90;64.30;;;;;;5049462;28;20463;-82
2022/07/02 11:24:23;;;;;;;1.00;0.90;;;29.20;64.70;;;;;;5049327;28;20486;-82
2022/07/02 11:26:50;;;;;;;0.80;0.77;;;29.50;66.10;;;;;;5049612;28;20464;-81
2022/07/02 11:29:17;;;;;;;0.80;0.80;;;29.90;66.60;;;;;;5049303;28;20454;-82
2022/07/02 11:31:46;;;;;;;0.87;0.87;;;30.30;59.70;;;;;;5049676;28;20445;-82
2022/07/02 11:34:14;;;;;;;1.60;0.60;;;30.70;60.20;;;;;;5049088;28;20455;-82
2022/07/02 11:36:43;;;;;;;0.67;0.67;;;31.00;58.40;;;;;;5048817;28;20452;-82
2022/07/02 11:39:12;;;;;;;0.70;0.70;;;31.20;54.10;;;;;;5049455;28;20505;-82
2022/07/02 11:41:39;;;;;;;1.37;0.90;;;31.40;55.10;;;;;;5049162;28;20516;-82
2022/07/02 11:44:15;;;;;;;1.03;0.83;;;31.40;52.80;;;;;;5049715;28;20452;-82
2022/07/02 11:46:43;;;;;;;1.40;1.10;;;31.60;52.80;;;;;;5048871;28;20451;-82
2022/07/02 11:49:15;;;;;;;0.50;0.50;;;31.60;51.30;;;;;;5049008;28;20450;-82
2022/07/02 11:51:44;;;;;;;0.50;0.50;;;31.80;54.60;;;;;;5048529;28;20435;-82
2022/07/02 11:54:12;;;;;;;0.77;0.63;;;32.00;52.00;;;;;;5048942;28;20449;-82
2022/07/02 11:56:41;;;;;;;0.90;0.70;;;32.20;50.40;;;;;;5049885;28;20444;-82
2022/07/02 11:59:09;;;;;;;0.80;0.80;;;32.60;53.80;;;;;;5049812;28;20486;-82
2022/07/02 12:01:37;;;;;;;0.87;0.77;;;32.80;50.20;;;;;;5049004;28;20454;-82
2022/07/02 12:04:05;;;;;;;1.40;1.07;;;32.80;49.60;;;;;;5048668;28;20460;-81
2022/07/02 12:06:34;;;;;;;1.07;0.80;;;32.90;51.40;;;;;;5048708;28;20481;-82
2022/07/02 12:09:07;;;;;;;1.00;1.00;;;33.30;49.00;;;;;;5048371;28;20480;-82
2022/07/02 12:11:35;;;;;;;0.80;0.80;;;33.90;49.70;;;;;;5048501;28;20517;-82
2022/07/02 12:14:04;;;;;;;1.00;1.00;;;34.40;46.80;;;;;;5048542;28;20456;-82
2022/07/02 12:16:32;;;;;;;0.80;0.57;;;34.80;47.40;;;;;;5048148;28;20475;-82
2022/07/02 12:19:00;;;;;;;0.70;0.70;;;35.40;45.70;;;;;;5048956;28;20485;-82
2022/07/02 12:21:35;;;;;;;1.40;0.80;;;36.00;47.80;;;;;;5045802;28;20454;-83
2022/07/02 12:24:06;;;;;;;0.87;0.87;;;36.20;43.80;;;;;;5046180;28;20456;-83
2022/07/02 12:26:33;;;;;;;0.97;0.83;;;36.50;43.60;;;;;;5046454;28;20456;-83
2022/07/02 12:31:44;;;;;;;0.93;0.90;;;36.60;41.20;;;;;;5004193;28;20476;-82
2022/07/02 12:34:11;;;;;;;1.37;0.93;;;36.90;42.80;;;;;;5053226;28;20449;-83
2022/07/02 12:36:49;;;;;;;1.67;0.73;;;37.10;39.80;;;;;;5052115;28;20456;-83
2022/07/02 12:39:18;;;;;;;0.70;0.70;;;37.60;42.10;;;;;;5052086;28;21045;-83
2022/07/02 12:41:44;;;;;;;1.33;0.90;;;37.90;37.90;;;;;;5052364;28;20457;-83
2022/07/02 12:44:19;;;;;;;0.87;0.70;;;38.00;40.00;;;;;;5053006;28;20449;-83
2022/07/02 12:46:49;;;;;;;0.60;0.60;;;38.10;39.60;;;;;;5052216;28;20453;-83
2022/07/02 12:49:18;;;;;;;0.63;0.63;;;38.00;38.00;;;;;;5053359;28;20438;-83
2022/07/02 12:51:53;;;;;;;4.93;1.10;;;37.90;37.60;;;;;;5052768;28;20445;-83
2022/07/02 12:54:21;;;;;;;1.00;0.90;;;37.80;37.70;;;;;;5052995;28;20448;-83
2022/07/02 12:56:48;;;;;;;0.90;0.90;;;38.00;38.20;;;;;;5052360;28;20820;-83
2022/07/02 12:59:14;;;;;;;0.87;0.87;;;38.30;36.50;;;;;;5052960;28;20571;-83
2022/07/02 13:01:41;;;;;;;1.10;0.97;;;38.70;38.50;;;;;;5052309;28;20446;-83
2022/07/02 13:04:08;;;;;;;0.67;0.67;;;38.80;35.60;;;;;;5052224;28;20453;-83
2022/07/02 13:06:34;;;;;;;1.90;1.20;;;38.80;35.70;;;;;;5052753;28;20449;-83
2022/07/02 13:09:01;;;;;;;1.20;1.10;;;38.80;37.20;;;;;;5048594;28;20430;-83
2022/07/02 13:11:30;;;;;;;3.37;0.90;;;38.90;37.70;;;;;;5047747;28;20206;-83
2022/07/02 13:13:57;;;;;;;1.33;1.33;;;39.40;38.20;;;;;;5049654;28;20449;-82
2022/07/02 13:16:24;;;;;;;0.87;0.87;;;39.90;37.00;;;;;;5051747;28;20986;-83
2022/07/02 13:18:50;;;;;;;1.47;0.97;;;40.40;35.70;;;;;;5055055;28;20476;-83
2022/07/02 13:21:17;;;;;;;0.90;0.90;;;40.80;34.80;;;;;;5058030;28;20464;-82
2022/07/02 13:23:44;;;;;;;0.83;0.67;;;41.10;35.70;;;;;;5053257;28;20457;-84
2022/07/02 13:26:10;;;;;;;0.83;0.83;;;41.20;34.30;;;;;;5053098;28;20453;-83
2022/07/02 13:28:38;;;;;;;0.80;0.80;;;41.50;33.50;;;;;;5052274;28;20476;-83
2022/07/02 13:31:05;;;;;;;1.20;1.10;;;41.60;33.00;;;;;;5051909;28;20456;-83
2022/07/02 13:33:32;;;;;;;1.07;1.07;;;41.90;33.30;;;;;;5051668;28;20461;-83
2022/07/02 13:35:58;;;;;;;0.70;0.70;;;41.90;32.60;;;;;;5051640;28;20453;-84
2022/07/02 13:38:25;;;;;;;1.00;1.00;;;42.10;32.70;;;;;;5051620;28;20472;-83
2022/07/02 13:40:52;;;;;;;0.57;0.57;;;42.20;32.50;;;;;;5051684;28;20491;-84
2022/07/02 13:43:19;;;;;;;1.00;1.00;;;42.30;31.90;;;;;;5051724;28;20463;-83
2022/07/02 13:45:47;;;;;;;0.80;0.80;;;42.70;31.10;;;;;;5051287;28;20461;-83
2022/07/02 13:48:14;;;;;;;0.70;0.70;;;42.80;30.90;;;;;;5051797;28;21055;-83
2022/07/02 13:50:40;;;;;;;1.67;1.00;;;42.70;29.60;;;;;;5051169;28;20452;-83
2022/07/02 13:53:07;;;;;;;1.80;1.70;;;42.80;29.60;;;;;;5047511;28;20491;-84
2022/07/02 13:55:34;;;;;;;1.03;1.03;;;43.00;29.20;;;;;;5051500;28;20459;-83